sensor_id;sensor_type;location;lat;lon;timestamp;P1;durP1;ratioP1;P2;durP2;ratioP2
11141;SDS011;5625;50.122;19.864;2023-05-07T00:01:19;12.80;;;11.13;;
11141;SDS011;5625;50.122;19.864;2023-05-07T00:03:50;13.63;;;11.30;;
11141;SDS011;5625;50.122;19.864;2023-05-07T00:06:18;15.67;;;11.10;;
11141;SDS011;5625;50.122;19.864;2023-05-07T00:08:46;12.17;;;10.83;;
11141;SDS011;5625;50.122;19.864;2023-05-07T00:11:14;12.70;;;11.23;;
11141;SDS011;5625;50.122;19.864;2023-05-07T00:13:42;11.73;;;10.53;;
11141;SDS011;5625;50.122;19.864;2023-05-07T00:16:12;12.63;;;11.33;;
11141;SDS011;5625;50.122;19.864;2023-05-07T00:18:40;12.57;;;11.27;;
11141;SDS011;5625;50.122;19.864;2023-05-07T00:21:08;12.47;;;11.17;;
11141;SDS011;5625;50.122;19.864;2023-05-07T00:23:36;13.27;;;11.00;;
11141;SDS011;5625;50.122;19.864;2023-05-07T00:26:04;12.43;;;11.20;;
11141;SDS011;5625;50.122;19.864;2023-05-07T00:28:32;13.50;;;11.73;;
11141;SDS011;5625;50.122;19.864;2023-05-07T00:31:00;17.53;;;11.40;;
11141;SDS011;5625;50.122;19.864;2023-05-07T00:33:32;14.43;;;12.13;;
11141;SDS011;5625;50.122;19.864;2023-05-07T00:36:00;14.77;;;12.10;;
11141;SDS011;5625;50.122;19.864;2023-05-07T00:38:28;13.23;;;11.70;;
11141;SDS011;5625;50.122;19.864;2023-05-07T00:40:56;18.03;;;12.43;;
11141;SDS011;5625;50.122;19.864;2023-05-07T00:43:24;17.07;;;12.67;;
11141;SDS011;5625;50.122;19.864;2023-05-07T00:45:53;16.07;;;12.97;;
11141;SDS011;5625;50.122;19.864;2023-05-07T00:48:23;13.57;;;11.80;;
11141;SDS011;5625;50.122;19.864;2023-05-07T00:50:53;16.90;;;13.27;;
11141;SDS011;5625;50.122;19.864;2023-05-07T00:53:21;16.37;;;13.37;;
11141;SDS011;5625;50.122;19.864;2023-05-07T00:55:49;14.57;;;12.67;;
11141;SDS011;5625;50.122;19.864;2023-05-07T00:58:18;17.47;;;12.77;;
11141;SDS011;5625;50.122;19.864;2023-05-07T01:00:46;16.30;;;13.27;;
11141;SDS011;5625;50.122;19.864;2023-05-07T01:03:14;16.70;;;12.97;;
11141;SDS011;5625;50.122;19.864;2023-05-07T01:05:43;16.27;;;12.33;;
11141;SDS011;5625;50.122;19.864;2023-05-07T01:08:17;16.07;;;13.17;;
11141;SDS011;5625;50.122;19.864;2023-05-07T01:10:46;15.57;;;12.50;;
11141;SDS011;5625;50.122;19.864;2023-05-07T01:13:14;14.73;;;12.43;;
11141;SDS011;5625;50.122;19.864;2023-05-07T01:15:43;16.40;;;12.27;;
11141;SDS011;5625;50.122;19.864;2023-05-07T01:18:11;16.47;;;13.90;;
11141;SDS011;5625;50.122;19.864;2023-05-07T01:20:39;15.70;;;13.53;;
11141;SDS011;5625;50.122;19.864;2023-05-07T01:23:09;16.07;;;13.77;;
11141;SDS011;5625;50.122;19.864;2023-05-07T01:25:38;17.97;;;14.83;;
11141;SDS011;5625;50.122;19.864;2023-05-07T01:28:06;16.43;;;14.73;;
11141;SDS011;5625;50.122;19.864;2023-05-07T01:30:34;16.23;;;14.37;;
11141;SDS011;5625;50.122;19.864;2023-05-07T01:33:04;17.20;;;15.40;;
11141;SDS011;5625;50.122;19.864;2023-05-07T01:35:37;19.03;;;14.47;;
11141;SDS011;5625;50.122;19.864;2023-05-07T01:38:10;18.63;;;15.40;;
11141;SDS011;5625;50.122;19.864;2023-05-07T01:40:39;17.87;;;15.17;;
11141;SDS011;5625;50.122;19.864;2023-05-07T01:43:08;17.47;;;15.63;;
11141;SDS011;5625;50.122;19.864;2023-05-07T01:45:37;17.50;;;14.13;;
11141;SDS011;5625;50.122;19.864;2023-05-07T01:48:06;14.93;;;13.30;;
11141;SDS011;5625;50.122;19.864;2023-05-07T01:50:35;15.30;;;12.67;;
11141;SDS011;5625;50.122;19.864;2023-05-07T01:53:04;13.60;;;11.97;;
11141;SDS011;5625;50.122;19.864;2023-05-07T01:55:34;12.97;;;11.17;;
11141;SDS011;5625;50.122;19.864;2023-05-07T01:58:03;12.50;;;10.67;;
11141;SDS011;5625;50.122;19.864;2023-05-07T02:00:31;11.67;;;10.50;;
11141;SDS011;5625;50.122;19.864;2023-05-07T02:02:59;11.13;;;9.77;;
11141;SDS011;5625;50.122;19.864;2023-05-07T02:05:27;12.33;;;10.13;;
11141;SDS011;5625;50.122;19.864;2023-05-07T02:07:55;12.77;;;10.50;;
11141;SDS011;5625;50.122;19.864;2023-05-07T02:10:23;11.50;;;9.87;;
11141;SDS011;5625;50.122;19.864;2023-05-07T02:12:53;10.53;;;9.43;;
11141;SDS011;5625;50.122;19.864;2023-05-07T02:15:21;10.23;;;9.20;;
11141;SDS011;5625;50.122;19.864;2023-05-07T02:17:58;9.57;;;8.67;;
11141;SDS011;5625;50.122;19.864;2023-05-07T02:20:27;11.80;;;9.37;;
11141;SDS011;5625;50.122;19.864;2023-05-07T02:22:56;10.47;;;9.23;;
11141;SDS011;5625;50.122;19.864;2023-05-07T02:25:24;11.47;;;9.37;;
11141;SDS011;5625;50.122;19.864;2023-05-07T02:27:53;9.63;;;8.63;;
11141;SDS011;5625;50.122;19.864;2023-05-07T02:30:21;9.47;;;8.53;;
11141;SDS011;5625;50.122;19.864;2023-05-07T02:32:49;8.47;;;7.67;;
11141;SDS011;5625;50.122;19.864;2023-05-07T02:35:18;8.57;;;7.77;;
11141;SDS011;5625;50.122;19.864;2023-05-07T02:37:46;8.83;;;7.97;;
11141;SDS011;5625;50.122;19.864;2023-05-07T02:40:14;8.87;;;7.97;;
11141;SDS011;5625;50.122;19.864;2023-05-07T02:42:42;7.80;;;7.00;;
11141;SDS011;5625;50.122;19.864;2023-05-07T02:45:12;8.20;;;7.50;;
11141;SDS011;5625;50.122;19.864;2023-05-07T02:47:40;8.50;;;6.67;;
11141;SDS011;5625;50.122;19.864;2023-05-07T02:50:08;7.53;;;6.73;;
11141;SDS011;5625;50.122;19.864;2023-05-07T02:52:37;6.67;;;6.00;;
11141;SDS011;5625;50.122;19.864;2023-05-07T02:55:06;6.53;;;5.83;;
11141;SDS011;5625;50.122;19.864;2023-05-07T02:57:34;5.77;;;5.17;;
11141;SDS011;5625;50.122;19.864;2023-05-07T03:00:09;5.60;;;5.10;;
11141;SDS011;5625;50.122;19.864;2023-05-07T03:02:40;5.17;;;4.60;;
11141;SDS011;5625;50.122;19.864;2023-05-07T03:05:09;5.90;;;3.97;;
11141;SDS011;5625;50.122;19.864;2023-05-07T03:07:38;4.10;;;3.70;;
11141;SDS011;5625;50.122;19.864;2023-05-07T03:10:06;3.60;;;3.27;;
11141;SDS011;5625;50.122;19.864;2023-05-07T03:12:34;3.87;;;3.33;;
11141;SDS011;5625;50.122;19.864;2023-05-07T03:15:03;3.30;;;3.00;;
11141;SDS011;5625;50.122;19.864;2023-05-07T03:17:34;3.37;;;3.07;;
11141;SDS011;5625;50.122;19.864;2023-05-07T03:20:02;3.80;;;3.20;;
11141;SDS011;5625;50.122;19.864;2023-05-07T03:22:31;3.47;;;3.20;;
11141;SDS011;5625;50.122;19.864;2023-05-07T03:24:59;2.90;;;2.70;;
11141;SDS011;5625;50.122;19.864;2023-05-07T03:27:27;3.10;;;2.80;;
11141;SDS011;5625;50.122;19.864;2023-05-07T03:29:55;4.37;;;2.87;;
11141;SDS011;5625;50.122;19.864;2023-05-07T03:32:23;2.80;;;2.60;;
11141;SDS011;5625;50.122;19.864;2023-05-07T03:34:53;3.00;;;2.80;;
11141;SDS011;5625;50.122;19.864;2023-05-07T03:37:21;2.90;;;2.70;;
11141;SDS011;5625;50.122;19.864;2023-05-07T03:39:49;3.43;;;2.60;;
11141;SDS011;5625;50.122;19.864;2023-05-07T03:42:17;3.00;;;2.80;;
11141;SDS011;5625;50.122;19.864;2023-05-07T03:44:45;2.70;;;2.50;;
11141;SDS011;5625;50.122;19.864;2023-05-07T03:47:13;2.53;;;2.40;;
11141;SDS011;5625;50.122;19.864;2023-05-07T03:49:41;3.47;;;2.53;;
11141;SDS011;5625;50.122;19.864;2023-05-07T03:52:11;2.50;;;2.30;;
11141;SDS011;5625;50.122;19.864;2023-05-07T03:54:40;2.83;;;2.63;;
11141;SDS011;5625;50.122;19.864;2023-05-07T03:57:08;3.43;;;2.60;;
11141;SDS011;5625;50.122;19.864;2023-05-07T03:59:36;2.90;;;2.70;;
11141;SDS011;5625;50.122;19.864;2023-05-07T04:02:04;3.23;;;2.77;;
11141;SDS011;5625;50.122;19.864;2023-05-07T04:04:32;3.03;;;2.77;;
11141;SDS011;5625;50.122;19.864;2023-05-07T04:07:00;5.83;;;4.80;;
11141;SDS011;5625;50.122;19.864;2023-05-07T04:09:30;5.77;;;4.90;;
11141;SDS011;5625;50.122;19.864;2023-05-07T04:11:58;6.27;;;5.67;;
11141;SDS011;5625;50.122;19.864;2023-05-07T04:14:27;5.33;;;4.30;;
11141;SDS011;5625;50.122;19.864;2023-05-07T04:16:56;4.27;;;3.87;;
11141;SDS011;5625;50.122;19.864;2023-05-07T04:19:24;3.50;;;3.00;;
11141;SDS011;5625;50.122;19.864;2023-05-07T04:21:52;4.13;;;2.70;;
11141;SDS011;5625;50.122;19.864;2023-05-07T04:24:20;2.67;;;2.47;;
11141;SDS011;5625;50.122;19.864;2023-05-07T04:26:50;2.43;;;2.27;;
11141;SDS011;5625;50.122;19.864;2023-05-07T04:29:18;2.80;;;2.40;;
11141;SDS011;5625;50.122;19.864;2023-05-07T04:31:47;2.57;;;2.33;;
11141;SDS011;5625;50.122;19.864;2023-05-07T04:34:15;3.03;;;2.33;;
11141;SDS011;5625;50.122;19.864;2023-05-07T04:36:43;2.30;;;2.10;;
11141;SDS011;5625;50.122;19.864;2023-05-07T04:39:12;2.63;;;2.43;;
11141;SDS011;5625;50.122;19.864;2023-05-07T04:41:40;3.23;;;2.27;;
11141;SDS011;5625;50.122;19.864;2023-05-07T04:44:09;2.80;;;2.10;;
11141;SDS011;5625;50.122;19.864;2023-05-07T04:46:38;2.00;;;1.80;;
11141;SDS011;5625;50.122;19.864;2023-05-07T04:49:07;2.60;;;2.17;;
11141;SDS011;5625;50.122;19.864;2023-05-07T04:51:35;2.27;;;2.07;;
11141;SDS011;5625;50.122;19.864;2023-05-07T04:54:04;2.17;;;2.00;;
11141;SDS011;5625;50.122;19.864;2023-05-07T04:56:32;1.90;;;1.80;;
11141;SDS011;5625;50.122;19.864;2023-05-07T04:59:00;2.40;;;2.20;;
11141;SDS011;5625;50.122;19.864;2023-05-07T05:01:33;1.80;;;1.70;;
11141;SDS011;5625;50.122;19.864;2023-05-07T05:04:01;2.70;;;2.50;;
11141;SDS011;5625;50.122;19.864;2023-05-07T05:06:29;3.70;;;3.37;;
11141;SDS011;5625;50.122;19.864;2023-05-07T05:08:57;8.47;;;5.23;;
11141;SDS011;5625;50.122;19.864;2023-05-07T05:11:25;5.03;;;4.60;;
11141;SDS011;5625;50.122;19.864;2023-05-07T05:13:53;5.77;;;5.17;;
11141;SDS011;5625;50.122;19.864;2023-05-07T05:16:21;6.20;;;5.10;;
11141;SDS011;5625;50.122;19.864;2023-05-07T05:18:51;4.47;;;4.07;;
11141;SDS011;5625;50.122;19.864;2023-05-07T05:21:20;3.90;;;3.07;;
11141;SDS011;5625;50.122;19.864;2023-05-07T05:23:48;2.63;;;2.43;;
11141;SDS011;5625;50.122;19.864;2023-05-07T05:26:16;2.80;;;2.60;;
11141;SDS011;5625;50.122;19.864;2023-05-07T05:28:44;2.37;;;2.10;;
11141;SDS011;5625;50.122;19.864;2023-05-07T05:31:12;2.10;;;2.00;;
11141;SDS011;5625;50.122;19.864;2023-05-07T05:33:40;2.40;;;2.17;;
11141;SDS011;5625;50.122;19.864;2023-05-07T05:36:12;1.90;;;1.80;;
11141;SDS011;5625;50.122;19.864;2023-05-07T05:38:40;3.07;;;2.07;;
11141;SDS011;5625;50.122;19.864;2023-05-07T05:41:08;3.03;;;2.33;;
11141;SDS011;5625;50.122;19.864;2023-05-07T05:43:36;2.40;;;2.20;;
11141;SDS011;5625;50.122;19.864;2023-05-07T05:46:04;1.83;;;1.73;;
11141;SDS011;5625;50.122;19.864;2023-05-07T05:48:34;2.07;;;1.87;;
11141;SDS011;5625;50.122;19.864;2023-05-07T05:51:03;1.80;;;1.70;;
11141;SDS011;5625;50.122;19.864;2023-05-07T05:53:34;2.70;;;2.33;;
11141;SDS011;5625;50.122;19.864;2023-05-07T05:56:03;2.00;;;1.90;;
11141;SDS011;5625;50.122;19.864;2023-05-07T05:58:32;2.07;;;1.97;;
11141;SDS011;5625;50.122;19.864;2023-05-07T06:01:00;3.17;;;2.20;;
11141;SDS011;5625;50.122;19.864;2023-05-07T06:03:29;2.30;;;2.10;;
11141;SDS011;5625;50.122;19.864;2023-05-07T06:05:58;3.37;;;2.10;;
11141;SDS011;5625;50.122;19.864;2023-05-07T06:08:28;2.03;;;1.90;;
11141;SDS011;5625;50.122;19.864;2023-05-07T06:10:58;2.73;;;2.30;;
11141;SDS011;5625;50.122;19.864;2023-05-07T06:13:28;2.87;;;2.10;;
11141;SDS011;5625;50.122;19.864;2023-05-07T06:15:56;2.53;;;2.33;;
11141;SDS011;5625;50.122;19.864;2023-05-07T06:18:25;2.67;;;2.47;;
11141;SDS011;5625;50.122;19.864;2023-05-07T06:20:53;2.97;;;2.63;;
11141;SDS011;5625;50.122;19.864;2023-05-07T06:23:21;3.53;;;2.53;;
11141;SDS011;5625;50.122;19.864;2023-05-07T06:25:50;2.60;;;2.40;;
11141;SDS011;5625;50.122;19.864;2023-05-07T06:28:19;3.83;;;2.70;;
11141;SDS011;5625;50.122;19.864;2023-05-07T06:30:49;2.93;;;2.63;;
11141;SDS011;5625;50.122;19.864;2023-05-07T06:33:18;3.47;;;3.20;;
11141;SDS011;5625;50.122;19.864;2023-05-07T06:35:46;3.30;;;2.80;;
11141;SDS011;5625;50.122;19.864;2023-05-07T06:38:14;5.10;;;4.60;;
11141;SDS011;5625;50.122;19.864;2023-05-07T06:40:43;4.17;;;3.77;;
11141;SDS011;5625;50.122;19.864;2023-05-07T06:43:17;3.93;;;3.30;;
11141;SDS011;5625;50.122;19.864;2023-05-07T06:45:46;4.70;;;3.70;;
11141;SDS011;5625;50.122;19.864;2023-05-07T06:48:14;4.20;;;3.30;;
11141;SDS011;5625;50.122;19.864;2023-05-07T06:50:42;4.13;;;3.13;;
11141;SDS011;5625;50.122;19.864;2023-05-07T06:53:10;3.30;;;3.00;;
11141;SDS011;5625;50.122;19.864;2023-05-07T06:55:38;2.93;;;2.70;;
11141;SDS011;5625;50.122;19.864;2023-05-07T06:58:12;3.63;;;3.30;;
11141;SDS011;5625;50.122;19.864;2023-05-07T07:00:40;3.43;;;3.13;;
11141;SDS011;5625;50.122;19.864;2023-05-07T07:03:10;3.30;;;3.10;;
11141;SDS011;5625;50.122;19.864;2023-05-07T07:05:39;3.47;;;3.17;;
11141;SDS011;5625;50.122;19.864;2023-05-07T07:08:10;3.83;;;3.43;;
11141;SDS011;5625;50.122;19.864;2023-05-07T07:10:38;3.43;;;3.13;;
11141;SDS011;5625;50.122;19.864;2023-05-07T07:13:06;3.60;;;3.30;;
11141;SDS011;5625;50.122;19.864;2023-05-07T07:15:36;3.83;;;3.50;;
11141;SDS011;5625;50.122;19.864;2023-05-07T07:18:04;3.73;;;3.43;;
11141;SDS011;5625;50.122;19.864;2023-05-07T07:20:34;3.63;;;3.33;;
11141;SDS011;5625;50.122;19.864;2023-05-07T07:23:02;4.03;;;3.73;;
11141;SDS011;5625;50.122;19.864;2023-05-07T07:25:30;3.73;;;3.43;;
11141;SDS011;5625;50.122;19.864;2023-05-07T07:27:58;3.33;;;3.13;;
11141;SDS011;5625;50.122;19.864;2023-05-07T07:30:26;3.10;;;2.90;;
11141;SDS011;5625;50.122;19.864;2023-05-07T07:32:54;3.20;;;3.00;;
11141;SDS011;5625;50.122;19.864;2023-05-07T07:35:28;2.97;;;2.47;;
11141;SDS011;5625;50.122;19.864;2023-05-07T07:37:57;2.80;;;2.60;;
11141;SDS011;5625;50.122;19.864;2023-05-07T07:40:26;2.50;;;2.30;;
11141;SDS011;5625;50.122;19.864;2023-05-07T07:42:54;2.63;;;2.40;;
11141;SDS011;5625;50.122;19.864;2023-05-07T07:45:22;2.83;;;2.63;;
11141;SDS011;5625;50.122;19.864;2023-05-07T07:47:50;2.67;;;2.47;;
11141;SDS011;5625;50.122;19.864;2023-05-07T07:50:19;2.40;;;2.20;;
11141;SDS011;5625;50.122;19.864;2023-05-07T07:53:09;3.77;;;2.57;;
11141;SDS011;5625;50.122;19.864;2023-05-07T07:55:38;3.17;;;2.80;;
11141;SDS011;5625;50.122;19.864;2023-05-07T07:58:06;2.93;;;2.60;;
11141;SDS011;5625;50.122;19.864;2023-05-07T08:00:34;3.00;;;2.80;;
11141;SDS011;5625;50.122;19.864;2023-05-07T08:03:05;2.80;;;2.60;;
11141;SDS011;5625;50.122;19.864;2023-05-07T08:05:33;2.60;;;2.40;;
11141;SDS011;5625;50.122;19.864;2023-05-07T08:08:05;3.00;;;2.80;;
11141;SDS011;5625;50.122;19.864;2023-05-07T08:10:34;3.07;;;2.70;;
11141;SDS011;5625;50.122;19.864;2023-05-07T08:13:04;4.13;;;2.50;;
11141;SDS011;5625;50.122;19.864;2023-05-07T08:15:33;3.03;;;2.83;;
11141;SDS011;5625;50.122;19.864;2023-05-07T08:18:01;3.13;;;2.93;;
11141;SDS011;5625;50.122;19.864;2023-05-07T08:20:29;3.80;;;3.50;;
11141;SDS011;5625;50.122;19.864;2023-05-07T08:22:58;4.03;;;3.67;;
11141;SDS011;5625;50.122;19.864;2023-05-07T08:25:26;4.17;;;3.87;;
11141;SDS011;5625;50.122;19.864;2023-05-07T08:27:55;5.30;;;4.80;;
11141;SDS011;5625;50.122;19.864;2023-05-07T08:30:23;4.43;;;4.07;;
11141;SDS011;5625;50.122;19.864;2023-05-07T08:32:51;4.53;;;4.13;;
11141;SDS011;5625;50.122;19.864;2023-05-07T08:35:19;4.30;;;4.00;;
11141;SDS011;5625;50.122;19.864;2023-05-07T08:37:47;3.77;;;3.47;;
11141;SDS011;5625;50.122;19.864;2023-05-07T08:40:15;4.17;;;3.87;;
11141;SDS011;5625;50.122;19.864;2023-05-07T08:42:44;4.10;;;3.80;;
11141;SDS011;5625;50.122;19.864;2023-05-07T08:45:20;5.63;;;5.03;;
11141;SDS011;5625;50.122;19.864;2023-05-07T08:47:50;6.90;;;6.30;;
11141;SDS011;5625;50.122;19.864;2023-05-07T08:50:22;6.17;;;5.67;;
11141;SDS011;5625;50.122;19.864;2023-05-07T08:52:53;7.50;;;6.83;;
11141;SDS011;5625;50.122;19.864;2023-05-07T08:55:22;7.30;;;6.60;;
11141;SDS011;5625;50.122;19.864;2023-05-07T08:57:51;6.87;;;6.27;;
11141;SDS011;5625;50.122;19.864;2023-05-07T09:00:23;6.80;;;6.20;;
11141;SDS011;5625;50.122;19.864;2023-05-07T09:02:51;7.63;;;6.93;;
11141;SDS011;5625;50.122;19.864;2023-05-07T09:05:20;7.30;;;6.70;;
11141;SDS011;5625;50.122;19.864;2023-05-07T09:07:48;7.13;;;6.43;;
11141;SDS011;5625;50.122;19.864;2023-05-07T09:10:20;8.03;;;7.33;;
11141;SDS011;5625;50.122;19.864;2023-05-07T09:12:48;7.40;;;6.70;;
11141;SDS011;5625;50.122;19.864;2023-05-07T09:15:17;7.10;;;6.50;;
11141;SDS011;5625;50.122;19.864;2023-05-07T09:17:47;7.80;;;7.10;;
11141;SDS011;5625;50.122;19.864;2023-05-07T09:20:15;7.83;;;7.00;;
11141;SDS011;5625;50.122;19.864;2023-05-07T09:22:44;7.40;;;6.70;;
11141;SDS011;5625;50.122;19.864;2023-05-07T09:25:12;7.10;;;6.23;;
11141;SDS011;5625;50.122;19.864;2023-05-07T09:27:41;6.70;;;6.00;;
11141;SDS011;5625;50.122;19.864;2023-05-07T09:30:12;6.70;;;5.80;;
11141;SDS011;5625;50.122;19.864;2023-05-07T09:32:40;7.10;;;6.47;;
11141;SDS011;5625;50.122;19.864;2023-05-07T09:35:15;6.83;;;6.13;;
11141;SDS011;5625;50.122;19.864;2023-05-07T09:37:45;7.50;;;6.80;;
11141;SDS011;5625;50.122;19.864;2023-05-07T09:40:19;7.00;;;6.30;;
11141;SDS011;5625;50.122;19.864;2023-05-07T09:42:49;5.47;;;5.00;;
11141;SDS011;5625;50.122;19.864;2023-05-07T09:45:24;5.80;;;5.30;;
11141;SDS011;5625;50.122;19.864;2023-05-07T09:47:53;5.80;;;5.30;;
11141;SDS011;5625;50.122;19.864;2023-05-07T09:50:25;8.10;;;5.73;;
11141;SDS011;5625;50.122;19.864;2023-05-07T09:52:55;5.67;;;5.17;;
11141;SDS011;5625;50.122;19.864;2023-05-07T09:55:24;5.03;;;4.60;;
11141;SDS011;5625;50.122;19.864;2023-05-07T09:57:53;6.53;;;5.23;;
11141;SDS011;5625;50.122;19.864;2023-05-07T10:00:22;5.60;;;4.70;;
11141;SDS011;5625;50.122;19.864;2023-05-07T10:02:51;5.93;;;4.87;;
11141;SDS011;5625;50.122;19.864;2023-05-07T10:05:20;6.20;;;5.13;;
11141;SDS011;5625;50.122;19.864;2023-05-07T10:07:51;6.70;;;6.10;;
11141;SDS011;5625;50.122;19.864;2023-05-07T10:10:21;6.13;;;5.53;;
11141;SDS011;5625;50.122;19.864;2023-05-07T10:12:51;5.90;;;4.70;;
11141;SDS011;5625;50.122;19.864;2023-05-07T10:15:19;5.53;;;4.57;;
11141;SDS011;5625;50.122;19.864;2023-05-07T10:17:51;5.83;;;5.10;;
11141;SDS011;5625;50.122;19.864;2023-05-07T10:20:21;5.83;;;5.20;;
11141;SDS011;5625;50.122;19.864;2023-05-07T10:22:51;7.70;;;6.23;;
11141;SDS011;5625;50.122;19.864;2023-05-07T10:25:23;4.47;;;4.07;;
11141;SDS011;5625;50.122;19.864;2023-05-07T10:27:56;4.73;;;4.33;;
11141;SDS011;5625;50.122;19.864;2023-05-07T10:30:32;5.00;;;4.60;;
11141;SDS011;5625;50.122;19.864;2023-05-07T10:33:08;7.20;;;5.90;;
11141;SDS011;5625;50.122;19.864;2023-05-07T10:35:39;6.13;;;5.63;;
11141;SDS011;5625;50.122;19.864;2023-05-07T10:38:11;5.40;;;4.90;;
11141;SDS011;5625;50.122;19.864;2023-05-07T10:40:39;5.33;;;4.83;;
11141;SDS011;5625;50.122;19.864;2023-05-07T10:43:07;5.87;;;5.37;;
11141;SDS011;5625;50.122;19.864;2023-05-07T10:45:36;5.97;;;5.47;;
11141;SDS011;5625;50.122;19.864;2023-05-07T10:48:08;5.23;;;4.83;;
11141;SDS011;5625;50.122;19.864;2023-05-07T10:53:53;4.40;;;4.00;;
11141;SDS011;5625;50.122;19.864;2023-05-07T10:56:50;3.77;;;3.47;;
11141;SDS011;5625;50.122;19.864;2023-05-07T10:59:31;4.27;;;3.80;;
11141;SDS011;5625;50.122;19.864;2023-05-07T11:02:08;4.23;;;3.93;;
11141;SDS011;5625;50.122;19.864;2023-05-07T11:04:40;4.03;;;3.67;;
11141;SDS011;5625;50.122;19.864;2023-05-07T11:10:02;3.90;;;3.60;;
11141;SDS011;5625;50.122;19.864;2023-05-07T11:12:53;4.30;;;3.90;;
11141;SDS011;5625;50.122;19.864;2023-05-07T11:18:15;3.80;;;3.50;;
11141;SDS011;5625;50.122;19.864;2023-05-07T11:20:44;3.10;;;2.90;;
11141;SDS011;5625;50.122;19.864;2023-05-07T11:26:44;4.03;;;3.73;;
11141;SDS011;5625;50.122;19.864;2023-05-07T11:29:13;6.43;;;5.37;;
11141;SDS011;5625;50.122;19.864;2023-05-07T11:31:49;5.30;;;4.90;;
11141;SDS011;5625;50.122;19.864;2023-05-07T11:34:22;4.00;;;3.67;;
11141;SDS011;5625;50.122;19.864;2023-05-07T11:36:51;3.97;;;3.67;;
11141;SDS011;5625;50.122;19.864;2023-05-07T11:39:23;4.70;;;4.20;;
11141;SDS011;5625;50.122;19.864;2023-05-07T11:41:58;4.03;;;3.70;;
11141;SDS011;5625;50.122;19.864;2023-05-07T11:44:39;3.17;;;2.93;;
11141;SDS011;5625;50.122;19.864;2023-05-07T11:47:10;3.77;;;2.70;;
11141;SDS011;5625;50.122;19.864;2023-05-07T11:49:38;3.60;;;3.30;;
11141;SDS011;5625;50.122;19.864;2023-05-07T11:52:06;3.00;;;2.80;;
11141;SDS011;5625;50.122;19.864;2023-05-07T11:54:35;2.90;;;2.70;;
11141;SDS011;5625;50.122;19.864;2023-05-07T11:57:05;3.00;;;2.80;;
11141;SDS011;5625;50.122;19.864;2023-05-07T11:59:38;2.83;;;2.50;;
11141;SDS011;5625;50.122;19.864;2023-05-07T12:02:07;2.93;;;2.73;;
11141;SDS011;5625;50.122;19.864;2023-05-07T12:04:37;3.10;;;2.90;;
11141;SDS011;5625;50.122;19.864;2023-05-07T12:07:05;2.77;;;2.53;;
11141;SDS011;5625;50.122;19.864;2023-05-07T12:09:38;2.87;;;2.67;;
11141;SDS011;5625;50.122;19.864;2023-05-07T12:12:07;2.83;;;2.63;;
11141;SDS011;5625;50.122;19.864;2023-05-07T12:14:37;3.57;;;2.87;;
11141;SDS011;5625;50.122;19.864;2023-05-07T12:17:06;4.50;;;2.57;;
11141;SDS011;5625;50.122;19.864;2023-05-07T12:19:35;3.40;;;2.60;;
11141;SDS011;5625;50.122;19.864;2023-05-07T12:22:04;2.77;;;2.57;;
11141;SDS011;5625;50.122;19.864;2023-05-07T12:24:44;2.90;;;2.60;;
11141;SDS011;5625;50.122;19.864;2023-05-07T12:27:14;2.97;;;2.70;;
11141;SDS011;5625;50.122;19.864;2023-05-07T12:29:43;2.60;;;2.40;;
11141;SDS011;5625;50.122;19.864;2023-05-07T12:32:13;3.10;;;2.87;;
11141;SDS011;5625;50.122;19.864;2023-05-07T12:34:41;2.40;;;2.30;;
11141;SDS011;5625;50.122;19.864;2023-05-07T12:37:11;2.80;;;2.60;;
11141;SDS011;5625;50.122;19.864;2023-05-07T12:39:43;3.13;;;2.80;;
11141;SDS011;5625;50.122;19.864;2023-05-07T12:42:15;3.20;;;2.90;;
11141;SDS011;5625;50.122;19.864;2023-05-07T12:44:49;3.17;;;2.80;;
11141;SDS011;5625;50.122;19.864;2023-05-07T12:47:18;2.97;;;2.77;;
11141;SDS011;5625;50.122;19.864;2023-05-07T12:49:47;2.90;;;2.70;;
11141;SDS011;5625;50.122;19.864;2023-05-07T12:52:16;3.30;;;3.10;;
11141;SDS011;5625;50.122;19.864;2023-05-07T12:54:44;3.27;;;3.03;;
11141;SDS011;5625;50.122;19.864;2023-05-07T12:57:12;3.97;;;3.67;;
11141;SDS011;5625;50.122;19.864;2023-05-07T12:59:42;3.43;;;2.90;;
11141;SDS011;5625;50.122;19.864;2023-05-07T13:02:10;3.70;;;3.40;;
11141;SDS011;5625;50.122;19.864;2023-05-07T13:04:38;3.60;;;3.30;;
11141;SDS011;5625;50.122;19.864;2023-05-07T13:07:06;4.43;;;3.30;;
11141;SDS011;5625;50.122;19.864;2023-05-07T13:09:34;3.00;;;2.80;;
11141;SDS011;5625;50.122;19.864;2023-05-07T13:12:03;5.37;;;3.13;;
11141;SDS011;5625;50.122;19.864;2023-05-07T13:14:32;3.50;;;3.30;;
11141;SDS011;5625;50.122;19.864;2023-05-07T13:17:01;3.10;;;2.90;;
11141;SDS011;5625;50.122;19.864;2023-05-07T13:19:32;2.73;;;2.53;;
11141;SDS011;5625;50.122;19.864;2023-05-07T13:22:00;3.10;;;2.90;;
11141;SDS011;5625;50.122;19.864;2023-05-07T13:24:30;3.50;;;3.20;;
11141;SDS011;5625;50.122;19.864;2023-05-07T13:26:58;3.07;;;2.87;;
11141;SDS011;5625;50.122;19.864;2023-05-07T13:29:26;2.90;;;2.70;;
11141;SDS011;5625;50.122;19.864;2023-05-07T13:31:56;3.00;;;2.43;;
11141;SDS011;5625;50.122;19.864;2023-05-07T13:34:26;3.10;;;2.90;;
11141;SDS011;5625;50.122;19.864;2023-05-07T13:36:55;3.40;;;3.10;;
11141;SDS011;5625;50.122;19.864;2023-05-07T13:39:24;4.07;;;2.70;;
11141;SDS011;5625;50.122;19.864;2023-05-07T13:41:53;3.00;;;2.80;;
11141;SDS011;5625;50.122;19.864;2023-05-07T13:44:21;3.03;;;2.83;;
11141;SDS011;5625;50.122;19.864;2023-05-07T13:46:52;3.23;;;2.93;;
11141;SDS011;5625;50.122;19.864;2023-05-07T13:49:20;3.17;;;2.60;;
11141;SDS011;5625;50.122;19.864;2023-05-07T13:51:51;3.70;;;3.40;;
11141;SDS011;5625;50.122;19.864;2023-05-07T13:54:19;4.70;;;2.73;;
11141;SDS011;5625;50.122;19.864;2023-05-07T13:56:47;3.30;;;3.00;;
11141;SDS011;5625;50.122;19.864;2023-05-07T13:59:15;3.50;;;3.20;;
11141;SDS011;5625;50.122;19.864;2023-05-07T14:01:43;3.13;;;2.90;;
11141;SDS011;5625;50.122;19.864;2023-05-07T14:04:14;3.50;;;3.20;;
11141;SDS011;5625;50.122;19.864;2023-05-07T14:06:42;3.73;;;3.43;;
11141;SDS011;5625;50.122;19.864;2023-05-07T14:09:15;4.60;;;4.30;;
11141;SDS011;5625;50.122;19.864;2023-05-07T14:11:43;4.07;;;3.70;;
11141;SDS011;5625;50.122;19.864;2023-05-07T14:14:13;3.80;;;3.50;;
11141;SDS011;5625;50.122;19.864;2023-05-07T14:16:41;4.10;;;3.20;;
11141;SDS011;5625;50.122;19.864;2023-05-07T14:19:09;4.10;;;3.70;;
11141;SDS011;5625;50.122;19.864;2023-05-07T14:21:40;3.20;;;3.00;;
11141;SDS011;5625;50.122;19.864;2023-05-07T14:24:08;3.00;;;2.80;;
11141;SDS011;5625;50.122;19.864;2023-05-07T14:26:41;3.50;;;3.20;;
11141;SDS011;5625;50.122;19.864;2023-05-07T14:29:12;3.50;;;3.20;;
11141;SDS011;5625;50.122;19.864;2023-05-07T14:31:43;3.83;;;3.53;;
11141;SDS011;5625;50.122;19.864;2023-05-07T14:34:12;3.70;;;3.40;;
11141;SDS011;5625;50.122;19.864;2023-05-07T14:36:40;3.50;;;3.20;;
11141;SDS011;5625;50.122;19.864;2023-05-07T14:39:10;4.50;;;4.10;;
11141;SDS011;5625;50.122;19.864;2023-05-07T14:41:41;4.30;;;3.90;;
11141;SDS011;5625;50.122;19.864;2023-05-07T14:44:09;4.50;;;3.97;;
11141;SDS011;5625;50.122;19.864;2023-05-07T14:46:37;4.57;;;4.17;;
11141;SDS011;5625;50.122;19.864;2023-05-07T14:49:05;4.50;;;4.20;;
11141;SDS011;5625;50.122;19.864;2023-05-07T14:51:39;4.10;;;3.70;;
11141;SDS011;5625;50.122;19.864;2023-05-07T14:54:07;4.90;;;4.40;;
11141;SDS011;5625;50.122;19.864;2023-05-07T14:56:38;4.93;;;4.50;;
11141;SDS011;5625;50.122;19.864;2023-05-07T14:59:10;4.43;;;4.13;;
11141;SDS011;5625;50.122;19.864;2023-05-07T15:01:38;5.23;;;4.30;;
11141;SDS011;5625;50.122;19.864;2023-05-07T15:04:11;4.30;;;3.90;;
11141;SDS011;5625;50.122;19.864;2023-05-07T15:06:39;4.40;;;4.10;;
11141;SDS011;5625;50.122;19.864;2023-05-07T15:09:08;4.40;;;4.10;;